Time;durP1;ratioP1;P1;durP2;ratioP2;P2;SDS_P1;SDS_P2;PMS_P1;PMS_P2;Temp;Humidity;BMP_temperature;BMP_pressure;BME280_temperature;BME280_humidity;BME280_pressure;Samples;Min_cycle;Max_cycle;Signal;HPM_P1;HPM_P2
2022/10/24 00:00:35;;;;;;;;;3.00;0.00;;;;;20.76;58.29;-19761.59;5002971;27;45515;-72
2022/10/24 00:03:00;;;;;;;;;0.00;0.00;;;;;20.75;58.37;-19761.34;4999104;27;47049;-72
2022/10/24 00:05:26;;;;;;;;;1.00;0.00;;;;;20.74;58.72;-19761.06;5001118;27;45390;-73
2022/10/24 00:07:51;;;;;;;;;0.75;0.00;;;;;20.73;58.46;-19760.81;4998626;27;45366;-74
2022/10/24 00:10:17;;;;;;;;;0.00;0.00;;;;;20.71;58.66;-19760.28;5007557;27;45511;-74
2022/10/24 00:12:43;;;;;;;;;0.00;0.00;;;;;20.70;58.60;-19760.00;4998367;27;46309;-74
2022/10/24 00:15:08;;;;;;;;;0.00;0.00;;;;;20.67;58.84;-19759.22;4996901;27;45427;-74
2022/10/24 00:17:34;;;;;;;;;0.00;0.00;;;;;20.64;59.44;-19758.41;4995231;28;45462;-74
2022/10/24 00:20:00;;;;;;;;;0.33;0.00;;;;;20.61;59.69;-19757.63;4994684;28;45452;-74
2022/10/24 00:22:26;;;;;;;;;0.00;0.00;;;;;20.61;59.30;-19757.75;4995033;27;45538;-74
2022/10/24 00:24:51;;;;;;;;;1.33;0.00;;;;;20.27;59.62;-19748.69;4992205;28;45491;-74
2022/10/24 00:27:17;;;;;;;;;2.00;0.00;;;;;20.58;59.90;-19756.94;4991303;28;45379;-74
2022/10/24 00:29:43;;;;;;;;;0.00;0.00;;;;;20.38;59.58;-19751.63;5003837;27;45407;-74
2022/10/24 00:32:08;;;;;;;;;0.00;0.00;;;;;20.57;59.65;-19756.53;4992263;27;45890;-74
2022/10/24 00:34:34;;;;;;;;;0.00;0.00;;;;;20.56;60.04;-19756.28;4994554;27;45528;-73
2022/10/24 00:36:59;;;;;;;;;0.00;0.00;;;;;20.51;59.86;-19755.06;4976524;28;45404;-74
2022/10/24 00:39:24;;;;;;;;;2.00;0.00;;;;;20.52;59.92;-19755.22;4989160;27;45475;-74
2022/10/24 00:41:53;;;;;;;;;0.00;0.00;;;;;20.51;60.22;-19755.06;4999811;27;46259;-73
2022/10/24 00:44:20;;;;;;;;;0.00;0.00;;;;;20.55;59.88;-19756.13;5009260;28;45467;-74
2022/10/24 00:47:00;;;;;;;;;0.00;0.00;;;;;20.50;60.09;-19754.81;4980325;28;45586;-74
2022/10/24 00:49:30;;;;;;;;;0.00;0.00;;;;;20.33;60.19;-19750.41;4972099;28;45568;-73
2022/10/24 00:52:02;;;;;;;;;0.00;0.00;;;;;20.51;59.99;-19755.06;4992456;27;45651;-74
2022/10/24 00:54:27;;;;;;;;;0.00;0.00;;;;;20.11;60.20;-19744.53;4993330;28;45361;-74
2022/10/24 00:57:03;;;;;;;;;0.67;0.67;;;;;20.47;60.34;-19754.00;4989925;27;45654;-74
2022/10/24 00:59:29;;;;;;;;;2.00;0.00;;;;;20.47;60.17;-19753.88;4987827;27;45489;-74
2022/10/24 01:01:55;;;;;;;;;1.67;0.00;;;;;20.47;59.93;-19754.00;4997544;27;47136;-74
2022/10/24 01:04:21;;;;;;;;;0.67;0.00;;;;;20.42;60.44;-19752.81;4998260;27;45487;-74
2022/10/24 01:07:01;;;;;;;;;0.33;0.00;;;;;20.39;60.52;-19752.00;4995707;27;45450;-74
2022/10/24 01:09:41;;;;;;;;;1.33;1.00;;;;;20.34;60.20;-19750.69;4989907;27;45404;-74
2022/10/24 01:12:25;;;;;;;;;0.00;0.00;;;;;20.31;60.72;-19749.75;4997697;27;45585;-74
2022/10/24 01:15:06;;;;;;;;;2.00;1.00;;;;;20.29;60.38;-19749.34;4984659;27;46914;-74
2022/10/24 01:17:55;;;;;;;;;0.33;0.00;;;;;20.24;60.63;-19748.00;4990455;27;45546;-74
2022/10/24 01:20:56;;;;;;;;;1.00;0.00;;;;;20.22;61.07;-19747.47;4992792;27;45536;-73
2022/10/24 01:23:39;;;;;;;;;0.00;0.00;;;;;20.18;60.62;-19746.53;4997586;27;45350;-74
2022/10/24 01:26:26;;;;;;;;;0.00;0.00;;;;;20.16;61.14;-19746.00;5002903;27;45546;-74
2022/10/24 01:28:51;;;;;;;;;0.33;0.00;;;;;20.15;61.21;-19745.75;4979630;27;45608;-74
2022/10/24 01:31:42;;;;;;;;;0.33;0.00;;;;;20.08;61.58;-19743.88;4993138;27;45616;-73
2022/10/24 01:34:22;;;;;;;;;0.33;0.00;;;;;19.98;61.25;-19741.34;5003740;27;46801;-74
2022/10/24 01:37:00;;;;;;;;;0.00;0.00;;;;;20.01;61.26;-19742.00;4981319;27;45604;-74
2022/10/24 01:39:33;;;;;;;;;0.33;0.00;;;;;20.09;61.76;-19744.00;4993928;27;45472;-75
2022/10/24 01:42:01;;;;;;;;;0.33;0.00;;;;;19.90;61.65;-19739.06;4997873;27;45467;-74
2022/10/24 01:44:37;;;;;;;;;0.00;0.00;;;;;19.88;61.96;-19738.69;5005795;27;46844;-74
2022/10/24 01:47:13;;;;;;;;;0.00;0.00;;;;;19.89;61.38;-19738.81;4996960;28;45304;-74
2022/10/24 01:49:42;;;;;;;;;1.00;0.00;;;;;19.70;61.61;-19733.88;4983653;27;46572;-74
2022/10/24 01:52:13;;;;;;;;;3.00;1.00;;;;;19.86;62.12;-19738.00;4989619;27;45468;-74
2022/10/24 01:54:40;;;;;;;;;0.00;0.00;;;;;19.91;61.80;-19739.47;4994724;27;46212;-74
2022/10/24 01:57:06;;;;;;;;;0.33;0.00;;;;;19.88;62.00;-19738.69;4996590;28;45479;-74
2022/10/24 01:59:31;;;;;;;;;1.33;0.00;;;;;19.85;62.10;-19737.88;4974623;28;45535;-74
2022/10/24 02:02:12;;;;;;;;;0.00;0.00;;;;;19.84;62.72;-19737.47;4994622;27;45670;-74
2022/10/24 02:04:43;;;;;;;;;0.00;0.00;;;;;19.43;62.60;-19726.94;4982488;27;45652;-74
2022/10/24 02:07:12;;;;;;;;;2.67;0.33;;;;;19.43;62.69;-19726.94;4979883;27;45293;-74
2022/10/24 02:09:41;;;;;;;;;0.00;0.00;;;;;19.73;62.64;-19734.81;5020325;27;45851;-75
2022/10/24 02:12:09;;;;;;;;;0.00;0.00;;;;;19.67;62.87;-19733.19;4996653;27;45540;-74
2022/10/24 02:15:00;;;;;;;;;0.00;0.00;;;;;19.68;63.24;-19733.47;4987113;27;45374;-74
2022/10/24 02:17:26;;;;;;;;;1.00;0.00;;;;;19.65;63.54;-19732.53;4993413;27;45474;-74
2022/10/24 02:19:52;;;;;;;;;0.67;0.00;;;;;19.22;63.11;-19721.47;4996346;27;45559;-74
2022/10/24 02:22:26;;;;;;;;;1.33;0.00;;;;;19.67;63.18;-19733.19;4995446;27;45377;-74
2022/10/24 02:25:17;;;;;;;;;0.00;0.00;;;;;19.64;62.92;-19732.28;4991717;27;46290;-75
2022/10/24 02:27:53;;;;;;;;;0.00;0.00;;;;;19.62;63.71;-19731.88;4985043;27;45431;-74
2022/10/24 02:30:22;;;;;;;;;0.00;0.00;;;;;19.59;63.40;-19731.19;4980910;27;45638;-74
2022/10/24 02:32:52;;;;;;;;;0.00;0.00;;;;;19.57;63.93;-19730.53;4999689;27;45540;-74
2022/10/24 02:35:27;;;;;;;;;0.00;0.00;;;;;19.40;63.93;-19726.13;4995877;27;46397;-74
2022/10/24 02:37:57;;;;;;;;;0.00;0.00;;;;;19.51;63.92;-19728.94;4996785;27;45426;-72
2022/10/24 02:40:23;;;;;;;;;2.00;0.00;;;;;19.44;64.43;-19727.06;5008056;27;45419;-76
2022/10/24 02:42:54;;;;;;;;;0.00;0.00;;;;;19.34;63.88;-19724.66;5004369;27;45580;-78
2022/10/24 02:45:22;;;;;;;;;0.67;0.67;;;;;19.34;64.31;-19724.66;4990766;27;46132;-75
2022/10/24 02:47:51;;;;;;;;;0.00;0.00;;;;;19.14;64.23;-19719.31;4977972;27;45949;-75
2022/10/24 02:50:16;;;;;;;;;0.67;0.33;;;;;19.42;64.31;-19726.53;4995733;27;45709;-75
2022/10/24 02:52:42;;;;;;;;;1.33;0.00;;;;;19.32;64.38;-19724.13;5003953;27;46093;-86
2022/10/24 02:55:10;;;;;;;;;1.00;0.00;;;;;19.39;64.82;-19726.00;4997525;27;46333;-80
2022/10/24 02:57:36;;;;;;;;;0.00;0.00;;;;;19.21;64.94;-19721.06;4988865;27;45504;-80
2022/10/24 03:00:01;;;;;;;;;0.33;0.00;;;;;19.34;64.46;-19724.66;4989377;27;45501;-76
2022/10/24 03:02:26;;;;;;;;;1.33;0.00;;;;;19.25;65.07;-19722.25;4999316;27;45679;-81
2022/10/24 03:04:52;;;;;;;;;0.00;0.00;;;;;19.39;64.81;-19726.00;4987806;27;46162;-75
2022/10/24 03:07:17;;;;;;;;;0.33;0.33;;;;;19.33;64.60;-19724.41;4966276;28;45465;-75
2022/10/24 03:09:42;;;;;;;;;0.67;0.67;;;;;19.41;65.14;-19726.41;4976323;27;45525;-75
2022/10/24 03:12:11;;;;;;;;;0.00;0.00;;;;;19.38;64.85;-19725.72;4976437;27;45377;-75
2022/10/24 03:14:36;;;;;;;;;0.00;0.00;;;;;19.31;65.24;-19723.84;4978050;27;45652;-75
2022/10/24 03:17:02;;;;;;;;;0.33;0.33;;;;;19.35;65.13;-19724.78;4977660;27;45363;-74
2022/10/24 03:19:27;;;;;;;;;2.00;0.00;;;;;19.34;64.94;-19724.66;4975990;27;45475;-75
2022/10/24 03:21:52;;;;;;;;;1.00;0.00;;;;;19.19;65.07;-19720.78;4976644;27;45290;-75
2022/10/24 03:24:18;;;;;;;;;0.00;0.00;;;;;19.31;65.22;-19723.84;4976382;27;46306;-75
2022/10/24 03:26:43;;;;;;;;;2.33;0.00;;;;;19.28;65.42;-19723.06;4976277;27;45262;-75
2022/10/24 03:29:09;;;;;;;;;1.00;0.00;;;;;18.91;65.30;-19713.44;4975983;27;45639;-76
2022/10/24 03:31:35;;;;;;;;;5.00;1.00;;;;;19.15;65.51;-19719.72;4982640;28;45386;-75
2022/10/24 03:34:00;;;;;;;;;0.67;0.67;;;;;18.97;65.03;-19714.91;4978983;27;45902;-75
2022/10/24 03:36:26;;;;;;;;;0.00;0.00;;;;;19.17;65.18;-19720.13;4977029;27;45483;-75
2022/10/24 03:38:51;;;;;;;;;0.00;0.00;;;;;19.12;65.74;-19718.78;4975890;28;45468;-75
2022/10/24 03:41:16;;;;;;;;;0.67;0.33;;;;;19.15;65.62;-19719.72;4979342;28;45368;-75
2022/10/24 03:43:42;;;;;;;;;0.00;0.00;;;;;19.15;65.82;-19719.59;4974529;28;46109;-75
2022/10/24 03:46:07;;;;;;;;;0.33;0.00;;;;;19.10;65.86;-19718.25;4990968;27;45521;-75
2022/10/24 03:48:32;;;;;;;;;2.67;0.33;;;;;19.07;66.12;-19717.44;4995665;27;45491;-75
2022/10/24 03:50:58;;;;;;;;;0.00;0.00;;;;;19.15;66.17;-19719.72;4978372;28;45415;-75
2022/10/24 03:53:23;;;;;;;;;1.33;0.00;;;;;19.16;65.72;-19719.84;4995212;27;46070;-75
2022/10/24 03:55:49;;;;;;;;;0.67;0.33;;;;;18.94;65.82;-19714.13;4995559;27;45346;-75
2022/10/24 03:58:14;;;;;;;;;3.00;0.00;;;;;19.10;65.54;-19718.38;4994290;27;45270;-75
2022/10/24 04:00:41;;;;;;;;;0.00;0.00;;;;;19.07;66.27;-19717.59;4995985;27;45274;-75
2022/10/24 04:03:08;;;;;;;;;0.67;0.67;;;;;19.12;65.95;-19718.91;4994684;27;47197;-75
2022/10/24 04:05:34;;;;;;;;;2.00;1.00;;;;;18.87;65.82;-19712.25;4995485;27;45416;-71
2022/10/24 04:07:59;;;;;;;;;0.00;0.00;;;;;19.07;65.78;-19717.44;4995518;27;45463;-71
2022/10/24 04:10:25;;;;;;;;;0.00;0.00;;;;;19.13;65.79;-19719.06;4995365;27;45626;-71
2022/10/24 04:12:50;;;;;;;;;1.00;1.00;;;;;19.11;66.08;-19718.66;4995028;27;46164;-71
2022/10/24 04:15:16;;;;;;;;;3.00;0.67;;;;;18.91;65.91;-19713.31;4987332;27;45443;-71
2022/10/24 04:17:41;;;;;;;;;2.33;0.33;;;;;18.80;66.22;-19710.50;4995074;27;45392;-71
2022/10/24 04:20:07;;;;;;;;;5.67;1.00;;;;;19.04;66.08;-19716.78;4995460;27;45439;-71
2022/10/24 04:22:32;;;;;;;;;0.00;0.00;;;;;19.10;66.63;-19718.25;4977615;28;48214;-71
2022/10/24 04:24:58;;;;;;;;;0.67;0.00;;;;;19.06;66.84;-19717.31;4995091;27;45442;-71
2022/10/24 04:27:23;;;;;;;;;0.00;0.00;;;;;19.04;66.52;-19716.78;4989900;27;45398;-71
2022/10/24 04:29:49;;;;;;;;;1.00;0.00;;;;;19.07;66.58;-19717.44;4987085;28;45462;-70
2022/10/24 04:32:14;;;;;;;;;1.00;1.00;;;;;19.01;66.63;-19715.84;4992745;27;47352;-71
2022/10/24 04:34:40;;;;;;;;;0.00;0.00;;;;;19.10;66.73;-19718.25;4995017;28;45304;-71
2022/10/24 04:37:05;;;;;;;;;1.00;0.67;;;;;19.06;66.44;-19717.31;4977444;27;45309;-71
2022/10/24 04:39:31;;;;;;;;;2.00;0.00;;;;;19.10;66.15;-19718.38;4977854;28;45312;-71
2022/10/24 04:41:56;;;;;;;;;2.00;0.33;;;;;19.12;65.90;-19718.78;4993596;27;45450;-71
2022/10/24 04:44:21;;;;;;;;;2.00;0.00;;;;;19.04;65.79;-19716.66;4994515;27;45578;-71
2022/10/24 04:46:47;;;;;;;;;0.00;0.00;;;;;19.08;65.83;-19717.84;4994707;27;45316;-70
2022/10/24 04:49:12;;;;;;;;;1.00;0.00;;;;;19.06;66.27;-19717.31;4994472;28;45377;-71
2022/10/24 04:51:37;;;;;;;;;1.33;0.00;;;;;19.02;66.26;-19716.25;4994793;27;46222;-71
2022/10/24 04:54:03;;;;;;;;;1.33;0.00;;;;;19.04;66.23;-19716.78;4994679;27;45289;-71
2022/10/24 04:56:28;;;;;;;;;2.00;0.33;;;;;19.02;66.60;-19716.13;4976976;27;45368;-71
2022/10/24 04:58:54;;;;;;;;;0.00;0.00;;;;;19.01;66.25;-19715.84;4977448;28;45430;-71
2022/10/24 05:01:19;;;;;;;;;0.00;0.00;;;;;18.97;66.57;-19715.06;4994304;27;46197;-71
2022/10/24 05:03:45;;;;;;;;;1.00;1.00;;;;;18.91;66.30;-19713.31;4977274;28;45353;-75
2022/10/24 05:06:10;;;;;;;;;2.67;0.00;;;;;18.82;66.64;-19711.03;4993836;27;45456;-75
2022/10/24 05:08:36;;;;;;;;;0.50;0.00;;;;;18.95;66.30;-19714.50;4995046;27;45508;-75
2022/10/24 05:11:01;;;;;;;;;1.00;1.00;;;;;18.91;66.50;-19713.31;4994252;27;46911;-75
2022/10/24 05:13:27;;;;;;;;;1.00;0.67;;;;;18.98;66.52;-19715.31;4994153;27;45453;-75
2022/10/24 05:15:52;;;;;;;;;0.00;0.00;;;;;18.81;66.81;-19710.66;4994386;27;45352;-75
2022/10/24 05:18:18;;;;;;;;;3.33;1.00;;;;;19.11;66.75;-19718.66;4994404;27;45451;-75
2022/10/24 05:20:43;;;;;;;;;0.00;0.00;;;;;19.23;66.18;-19721.72;4994417;28;45403;-75
2022/10/24 05:23:08;;;;;;;;;0.33;0.00;;;;;19.16;65.58;-19719.84;4993448;28;45500;-75
2022/10/24 05:25:34;;;;;;;;;1.00;0.00;;;;;18.98;66.12;-19715.31;4994265;27;45377;-75
2022/10/24 05:27:59;;;;;;;;;1.00;0.00;;;;;19.28;66.04;-19722.94;4994772;27;45349;-75
2022/10/24 05:30:25;;;;;;;;;1.67;1.33;;;;;19.28;65.70;-19722.94;4993738;27;46403;-75
2022/10/24 05:32:50;;;;;;;;;1.00;0.00;;;;;19.26;65.72;-19722.53;4976550;28;45276;-75
2022/10/24 05:35:15;;;;;;;;;5.67;1.00;;;;;19.07;65.95;-19717.59;4993961;27;45311;-75
2022/10/24 05:37:42;;;;;;;;;0.67;0.67;;;;;19.09;66.50;-19718.00;4976946;28;45740;-75
2022/10/24 05:40:12;;;;;;;;;1.00;1.00;;;;;19.14;66.54;-19719.31;4992908;27;47042;-75
2022/10/24 05:42:38;;;;;;;;;2.00;1.00;;;;;19.15;66.45;-19719.59;4992823;27;45408;-75
2022/10/24 05:45:06;;;;;;;;;5.67;0.00;;;;;19.15;66.66;-19719.72;4995090;27;45465;-75
2022/10/24 05:47:31;;;;;;;;;0.00;0.00;;;;;19.13;66.62;-19719.06;4997272;27;45340;-75
2022/10/24 05:49:56;;;;;;;;;3.33;1.00;;;;;18.97;66.40;-19715.06;4996675;27;46126;-74
2022/10/24 05:52:22;;;;;;;;;2.33;1.00;;;;;19.23;66.63;-19721.59;4996756;27;45468;-74
2022/10/24 05:54:47;;;;;;;;;0.67;0.00;;;;;19.22;66.33;-19721.31;4997131;27;45349;-75
2022/10/24 05:57:12;;;;;;;;;3.00;1.00;;;;;19.09;66.38;-19718.00;4996307;27;45359;-76
2022/10/24 05:59:38;;;;;;;;;3.00;1.00;;;;;19.21;66.27;-19721.06;4996270;27;46615;-75
2022/10/24 06:02:03;;;;;;;;;1.33;0.33;;;;;19.15;66.71;-19719.72;4987945;27;45419;-77
2022/10/24 06:04:28;;;;;;;;;2.00;0.00;;;;;19.14;66.80;-19719.31;5027032;27;45450;-79
2022/10/24 06:06:54;;;;;;;;;3.67;1.00;;;;;18.91;67.11;-19713.31;5019441;27;45382;-75
2022/10/24 06:09:19;;;;;;;;;0.00;0.00;;;;;19.18;66.68;-19720.53;4989181;28;46012;-75
2022/10/24 06:11:45;;;;;;;;;3.00;0.33;;;;;18.95;66.62;-19714.38;4983941;27;45489;-75
2022/10/24 06:14:10;;;;;;;;;0.00;0.00;;;;;19.00;66.99;-19715.72;4989920;28;45447;-74
2022/10/24 06:16:36;;;;;;;;;0.00;0.00;;;;;19.16;67.09;-19719.84;4991520;27;45587;-75
2022/10/24 06:19:04;;;;;;;;;3.00;0.00;;;;;19.06;67.35;-19717.31;4992279;27;45418;-75
2022/10/24 06:21:30;;;;;;;;;0.00;0.00;;;;;19.12;67.39;-19718.78;5021817;27;45609;-75
2022/10/24 06:23:56;;;;;;;;;1.00;1.00;;;;;19.12;66.78;-19718.78;4993058;27;45346;-75
2022/10/24 06:26:21;;;;;;;;;1.33;1.00;;;;;19.04;66.88;-19716.78;4973995;28;45566;-75
2022/10/24 06:28:47;;;;;;;;;1.67;0.33;;;;;18.92;66.84;-19713.72;4980080;27;45466;-75
2022/10/24 06:31:12;;;;;;;;;3.00;1.00;;;;;19.10;67.61;-19718.38;4980976;27;45380;-78
2022/10/24 06:33:39;;;;;;;;;0.00;0.00;;;;;19.10;66.94;-19718.38;4977421;28;45352;-75
2022/10/24 06:36:08;;;;;;;;;0.67;0.33;;;;;19.01;67.39;-19716.00;4989058;27;45453;-75
2022/10/24 06:38:34;;;;;;;;;2.00;1.00;;;;;19.01;67.36;-19716.00;5035334;27;46231;-75
2022/10/24 06:41:08;;;;;;;;;0.33;0.33;;;;;19.03;67.26;-19716.38;4999633;27;45434;-75
2022/10/24 06:43:35;;;;;;;;;1.00;1.00;;;;;19.06;66.75;-19717.19;4993260;28;45517;-75
2022/10/24 06:46:04;;;;;;;;;3.00;1.00;;;;;18.84;66.83;-19711.56;4994980;27;45380;-81
2022/10/24 06:48:29;;;;;;;;;2.00;1.33;;;;;18.98;67.07;-19715.19;4990484;28;45487;-78
2022/10/24 06:50:55;;;;;;;;;1.00;1.00;;;;;18.93;67.22;-19713.97;4971930;28;45507;-75
2022/10/24 06:53:20;;;;;;;;;0.67;0.00;;;;;18.97;67.14;-19715.06;5006843;27;45367;-75
2022/10/24 06:55:46;;;;;;;;;2.67;1.00;;;;;18.75;66.68;-19709.16;5003531;27;45471;-76
2022/10/24 06:58:11;;;;;;;;;2.00;0.67;;;;;18.94;67.29;-19714.25;4994489;27;46775;-75
2022/10/24 07:00:37;;;;;;;;;2.00;0.33;;;;;18.60;67.21;-19705.16;4998254;27;46309;-75
2022/10/24 07:03:02;;;;;;;;;0.00;0.00;;;;;18.96;66.80;-19714.66;4989863;27;45395;-76
2022/10/24 07:05:27;;;;;;;;;1.67;1.67;;;;;19.06;66.53;-19717.19;4995040;27;45393;-72
2022/10/24 07:07:53;;;;;;;;;0.33;0.33;;;;;19.08;66.62;-19717.72;4994979;27;45416;-72
2022/10/24 07:10:18;;;;;;;;;1.00;0.33;;;;;18.90;66.55;-19713.19;4994693;27;45455;-72
2022/10/24 07:12:44;;;;;;;;;1.00;1.00;;;;;19.16;66.57;-19720.00;4994843;27;45700;-72
2022/10/24 07:15:10;;;;;;;;;0.67;0.00;;;;;18.93;66.52;-19713.97;4995284;27;45456;-72
2022/10/24 07:17:43;;;;;;;;;1.00;1.00;;;;;19.23;65.86;-19721.59;4994626;27;46353;-72
2022/10/24 07:20:10;;;;;;;;;0.67;0.00;;;;;19.26;65.91;-19722.53;4979089;27;45532;-72
2022/10/24 07:22:36;;;;;;;;;1.00;0.00;;;;;19.25;66.10;-19722.13;4981152;27;45400;-72
2022/10/24 07:25:03;;;;;;;;;2.33;1.00;;;;;19.26;66.00;-19722.41;5011384;27;45424;-72
2022/10/24 07:27:28;;;;;;;;;1.50;1.00;;;;;19.26;66.10;-19722.53;5054081;27;45786;-72
2022/10/24 07:29:53;;;;;;;;;1.00;1.00;;;;;19.29;65.93;-19723.19;4996308;27;45259;-72
2022/10/24 07:32:20;;;;;;;;;4.00;1.00;;;;;19.35;65.79;-19724.94;4973554;28;45806;-72
2022/10/24 07:34:49;;;;;;;;;0.00;0.00;;;;;19.32;65.78;-19724.00;4991477;27;45456;-72
2022/10/24 07:37:15;;;;;;;;;12.33;11.33;;;;;19.07;65.86;-19717.44;5011015;27;46288;-72
2022/10/24 07:39:40;;;;;;;;;4.00;3.00;;;;;19.13;66.48;-19719.19;4980510;28;45472;-72
2022/10/24 07:42:06;;;;;;;;;1.67;1.00;;;;;19.20;66.07;-19720.94;4949397;27;1257991;-72
2022/10/24 07:44:31;;;;;;;;;1.33;1.00;;;;;19.08;66.17;-19717.84;4995755;27;45409;-71
2022/10/24 07:46:57;;;;;;;;;1.00;1.00;;;;;19.01;66.43;-19715.84;4995383;27;45960;-72
2022/10/24 07:49:22;;;;;;;;;2.67;0.00;;;;;19.02;66.74;-19716.25;4995467;27;45400;-72
2022/10/24 07:51:47;;;;;;;;;1.33;0.00;;;;;18.91;67.19;-19713.44;4995612;27;45965;-72
2022/10/24 07:54:13;;;;;;;;;2.00;0.33;;;;;18.76;66.98;-19709.56;4995792;27;45412;-72
2022/10/24 07:56:38;;;;;;;;;0.33;0.33;;;;;18.96;66.80;-19714.66;4995078;27;46681;-72
2022/10/24 07:59:03;;;;;;;;;1.00;1.00;;;;;19.04;67.26;-19716.66;4995583;27;45390;-72
2022/10/24 08:01:29;;;;;;;;;3.00;2.00;;;;;19.04;67.11;-19716.66;4995455;27;45369;-72
2022/10/24 08:03:55;;;;;;;;;1.00;1.00;;;;;19.03;67.23;-19716.38;4995822;27;45367;-72
2022/10/24 08:06:28;;;;;;;;;3.75;0.00;;;;;19.06;67.35;-19717.31;4995090;27;45396;-72
2022/10/24 08:08:54;;;;;;;;;1.00;1.00;;;;;19.06;67.45;-19717.31;4993873;27;45413;-72
2022/10/24 08:11:25;;;;;;;;;3.00;0.00;;;;;19.02;67.22;-19716.25;4994008;28;45363;-72
2022/10/24 08:13:52;;;;;;;;;3.67;2.00;;;;;19.05;67.29;-19717.06;4995611;27;45565;-72
2022/10/24 08:16:20;;;;;;;;;0.67;0.33;;;;;19.18;66.71;-19720.53;4995027;27;47149;-72
2022/10/24 08:18:46;;;;;;;;;1.33;1.00;;;;;19.17;66.99;-19720.25;4994969;27;45472;-72
2022/10/24 08:21:14;;;;;;;;;1.00;1.00;;;;;19.14;67.10;-19719.47;4995354;27;45613;-72
2022/10/24 08:23:43;;;;;;;;;1.00;1.00;;;;;19.12;67.42;-19718.78;4992696;27;45429;-72
2022/10/24 08:26:11;;;;;;;;;2.00;0.33;;;;;19.14;67.64;-19719.31;4984060;27;46112;-72
2022/10/24 08:28:37;;;;;;;;;3.67;1.00;;;;;19.03;67.09;-19716.50;4995066;27;45409;-72
2022/10/24 08:31:06;;;;;;;;;0.50;0.50;;;;;19.27;66.67;-19722.78;4987845;27;45443;-72
2022/10/24 08:33:32;;;;;;;;;1.33;1.33;;;;;19.34;66.93;-19724.66;4989114;27;45402;-72
2022/10/24 08:36:00;;;;;;;;;2.25;0.00;;;;;19.18;66.67;-19720.53;4994464;27;45451;-72
2022/10/24 08:38:27;;;;;;;;;0.00;0.00;;;;;19.41;66.73;-19726.41;4982822;27;45504;-72
2022/10/24 08:40:53;;;;;;;;;1.33;1.33;;;;;19.48;67.01;-19728.13;4992724;27;45402;-72
2022/10/24 08:43:19;;;;;;;;;2.00;2.00;;;;;19.45;67.05;-19727.47;4994753;28;45430;-72
2022/10/24 08:46:12;;;;;;;;;0.33;0.33;;;;;19.64;66.63;-19732.28;4994861;27;47223;-72
2022/10/24 08:48:48;;;;;;;;;1.00;1.00;;;;;19.52;66.28;-19729.19;4975139;27;45441;-72
2022/10/24 08:51:33;;;;;;;;;4.00;1.00;;;;;19.30;66.31;-19723.47;5063133;27;45322;-72
2022/10/24 08:54:00;;;;;;;;;3.33;1.00;;;;;19.47;66.26;-19728.00;4994952;27;45295;-72
2022/10/24 08:56:30;;;;;;;;;0.00;0.00;;;;;19.37;66.77;-19725.47;4994176;27;47244;-72
2022/10/24 08:58:58;;;;;;;;;1.25;1.00;;;;;19.74;66.48;-19734.94;4994599;27;45506;-72
2022/10/24 09:02:04;;;;;;;;;4.00;1.00;;;;;19.93;65.71;-19740.00;4994489;27;45358;-72
2022/10/24 09:04:37;;;;;;;;;4.00;1.00;;;;;19.98;65.24;-19741.22;4994856;27;45487;-79
2022/10/24 09:07:03;;;;;;;;;2.00;0.00;;;;;19.89;65.85;-19738.81;4994058;27;45457;-80
2022/10/24 09:09:44;;;;;;;;;0.75;0.00;;;;;20.35;65.17;-19750.81;4993164;27;45824;-79
2022/10/24 09:12:12;;;;;;;;;4.00;1.00;;;;;20.36;64.89;-19751.22;4994819;28;45840;-80
2022/10/24 09:14:40;;;;;;;;;3.00;1.00;;;;;20.18;64.98;-19746.41;4994871;27;45496;-79
2022/10/24 09:17:21;;;;;;;;;1.25;0.25;;;;;20.32;64.88;-19750.00;4994079;27;46047;-79
2022/10/24 09:19:59;;;;;;;;;0.75;0.00;;;;;20.45;64.50;-19753.59;4994289;27;45493;-80
2022/10/24 09:22:28;;;;;;;;;2.00;1.25;;;;;20.60;63.78;-19757.47;4994280;27;45382;-79
2022/10/24 09:25:10;;;;;;;;;0.75;0.00;;;;;20.55;63.30;-19756.13;4994897;27;45301;-80
2022/10/24 09:27:38;;;;;;;;;2.75;1.00;;;;;20.41;63.72;-19752.41;4981403;27;45495;-80
2022/10/24 09:30:10;;;;;;;;;1.67;1.00;;;;;20.23;63.92;-19747.88;4994399;27;45295;-80
2022/10/24 09:32:35;;;;;;;;;1.75;0.00;;;;;20.30;64.29;-19749.47;4992941;28;45395;-80
2022/10/24 09:35:14;;;;;;;;;2.33;1.00;;;;;20.19;63.96;-19746.69;4994491;27;45306;-79
2022/10/24 09:37:47;;;;;;;;;3.00;1.33;;;;;20.22;64.06;-19747.59;5023864;27;46046;-79
2022/10/24 09:40:33;;;;;;;;;3.33;0.00;;;;;20.42;63.94;-19752.69;5012645;28;45488;-79
2022/10/24 09:43:10;;;;;;;;;1.67;1.67;;;;;20.46;62.85;-19753.75;4990742;27;45364;-80
2022/10/24 09:45:49;;;;;;;;;1.00;1.00;;;;;20.59;62.60;-19757.09;4976878;28;45522;-80
2022/10/24 09:48:23;;;;;;;;;3.67;0.67;;;;;20.46;62.69;-19753.75;4993888;27;46452;-79
2022/10/24 09:50:51;;;;;;;;;3.00;0.00;;;;;20.84;62.31;-19763.63;4993945;27;45369;-79
2022/10/24 09:53:30;;;;;;;;;0.25;0.25;;;;;21.11;61.90;-19770.66;4976120;28;45411;-80
2022/10/24 09:56:08;;;;;;;;;2.00;0.75;;;;;21.04;62.49;-19768.81;4992916;27;45451;-80
2022/10/24 09:58:34;;;;;;;;;2.00;1.00;;;;;20.89;62.04;-19764.94;4993794;27;47303;-80
2022/10/24 10:01:16;;;;;;;;;2.00;0.00;;;;;20.54;62.80;-19755.75;4982026;28;45435;-80
2022/10/24 10:03:43;;;;;;;;;2.25;1.00;;;;;20.63;63.35;-19758.16;4994137;27;45397;-80
2022/10/24 10:06:17;;;;;;;;;0.50;0.50;;;;;20.86;62.66;-19764.13;4993887;28;45356;-79
2022/10/24 10:08:49;;;;;;;;;1.00;0.75;;;;;20.64;63.19;-19758.53;4979669;28;46153;-79
2022/10/24 10:11:23;;;;;;;;;2.00;1.00;;;;;20.63;62.86;-19758.28;4993690;27;45437;-79
2022/10/24 10:13:52;;;;;;;;;0.00;0.00;;;;;20.70;63.51;-19759.88;4976163;28;45350;-79
2022/10/24 10:16:23;;;;;;;;;3.00;2.00;;;;;21.33;62.09;-19776.25;4993744;27;45550;-80
2022/10/24 10:18:50;;;;;;;;;2.00;1.00;;;;;22.44;60.07;-19805.13;4993243;27;46337;-80
2022/10/24 10:21:23;;;;;;;;;2.00;0.00;;;;;22.58;58.89;-19808.88;4993284;27;45551;-80
2022/10/24 10:23:55;;;;;;;;;0.50;0.00;;;;;22.31;59.03;-19801.94;4993623;27;45315;-80
2022/10/24 10:26:28;;;;;;;;;0.50;0.50;;;;;21.97;59.74;-19793.03;4993655;27;45284;-82
2022/10/24 10:28:57;;;;;;;;;0.25;0.25;;;;;21.84;60.22;-19789.56;4978744;27;47242;-79
2022/10/24 10:31:34;;;;;;;;;2.00;0.00;;;;;21.90;60.04;-19791.16;5045810;27;45391;-80
2022/10/24 10:34:14;;;;;;;;;0.50;0.50;;;;;22.04;60.92;-19794.75;5051558;27;45440;-80
2022/10/24 10:37:07;;;;;;;;;1.00;1.00;;;;;22.17;59.86;-19798.09;4996936;27;45489;-79
2022/10/24 10:39:48;;;;;;;;;2.00;0.75;;;;;22.43;59.40;-19804.88;4984093;27;45972;-79
2022/10/24 10:42:16;;;;;;;;;5.75;0.25;;;;;22.40;59.72;-19804.22;4995433;27;45495;-80
2022/10/24 10:44:56;;;;;;;;;2.00;1.00;;;;;22.36;59.57;-19803.16;4996394;27;45449;-79
2022/10/24 10:47:33;;;;;;;;;0.75;0.75;;;;;22.31;59.25;-19801.94;4996731;27;45368;-79
2022/10/24 10:49:59;;;;;;;;;3.50;1.75;;;;;22.29;59.64;-19801.41;4995988;27;46149;-79
2022/10/24 10:52:31;;;;;;;;;0.75;0.00;;;;;22.31;58.50;-19801.81;4996071;27;45442;-80
2022/10/24 10:55:11;;;;;;;;;2.00;1.00;;;;;22.52;58.74;-19807.25;4996258;27;45345;-80
2022/10/24 10:58:01;;;;;;;;;2.25;0.75;;;;;23.04;57.82;-19820.81;4996469;27;45501;-80
2022/10/24 11:00:35;;;;;;;;;0.00;0.00;;;;;23.03;57.54;-19820.56;4966060;28;48908;-80
2022/10/24 11:03:00;;;;;;;;;3.00;1.00;;;;;22.62;58.16;-19809.78;5068712;27;45303;-79
2022/10/24 11:05:39;;;;;;;;;1.00;1.00;;;;;22.46;58.59;-19805.66;4996372;27;45429;-80
2022/10/24 11:08:40;;;;;;;;;3.25;0.75;;;;;22.15;58.57;-19797.69;4996272;27;45405;-79
2022/10/24 11:11:13;;;;;;;;;3.00;1.00;;;;;22.06;59.10;-19795.28;5019451;28;47073;-80
2022/10/24 11:13:48;;;;;;;;;1.50;1.50;;;;;21.92;58.81;-19791.84;5036355;28;46422;-80
2022/10/24 11:16:24;;;;;;;;;0.00;0.00;;;;;22.24;58.39;-19799.94;5036434;28;45452;-80
2022/10/24 11:18:54;;;;;;;;;0.25;0.25;;;;;22.97;57.79;-19818.97;5036637;28;45557;-79
2022/10/24 11:21:24;;;;;;;;;2.00;0.50;;;;;23.02;56.52;-19820.16;5019544;28;47279;-80
2022/10/24 11:23:55;;;;;;;;;0.25;0.00;;;;;22.43;57.39;-19804.88;5036424;28;45548;-80
2022/10/24 11:26:31;;;;;;;;;0.00;0.00;;;;;22.52;57.19;-19807.41;5036391;28;45352;-80
2022/10/24 11:29:02;;;;;;;;;0.50;0.50;;;;;22.90;56.80;-19817.09;5036480;28;45492;-80
2022/10/24 11:31:32;;;;;;;;;0.00;0.00;;;;;22.62;56.64;-19809.78;5019465;28;47378;-80
2022/10/24 11:34:25;;;;;;;;;1.75;0.00;;;;;22.38;58.29;-19803.69;5035785;28;45530;-80